createdAt,value
2019-06-08T00:03:10.812Z,99571.42
2019-06-08T00:08:29.590Z,99578.34
2019-06-08T00:13:48.483Z,99586.38
2019-06-08T00:19:07.162Z,99588.83
2019-06-08T00:24:25.753Z,99592.50
2019-06-08T00:29:44.690Z,99604.37
2019-06-08T00:35:04.725Z,99589.41
2019-06-08T00:40:23.104Z,99598.30
2019-06-08T00:45:41.928Z,99591.47
2019-06-08T00:51:00.652Z,99587.89
2019-06-08T00:56:19.522Z,99589.01
2019-06-08T01:01:38.218Z,99598.34
2019-06-08T01:06:56.934Z,99601.78
2019-06-08T01:12:15.601Z,99604.41
2019-06-08T01:17:34.265Z,99606.16
2019-06-08T01:22:52.846Z,99618.75
2019-06-08T01:28:11.563Z,99631.34
2019-06-08T01:33:30.876Z,99634.73
2019-06-08T01:38:48.858Z,99633.63
2019-06-08T01:44:06.645Z,99636.26
2019-06-08T01:49:24.496Z,99641.17
2019-06-08T01:54:43.162Z,99655.28
2019-06-08T02:00:28.798Z,99655.11
2019-06-08T02:05:21.205Z,99664.30
2019-06-08T02:10:39.928Z,99660.38
2019-06-08T02:15:58.991Z,99654.53
2019-06-08T02:21:17.773Z,99661.80
2019-06-08T02:26:36.509Z,99663.70
2019-06-08T02:31:55.174Z,99659.19
2019-06-08T02:37:14.258Z,99661.59
2019-06-08T02:42:35.263Z,99666.81
2019-06-08T02:47:53.739Z,99672.31
2019-06-08T02:53:12.781Z,99672.31
2019-06-08T02:58:36.072Z,99681.69
2019-06-08T03:03:56.453Z,99693.14
2019-06-08T03:09:16.815Z,99703.27
2019-06-08T03:14:37.451Z,99706.91
2019-06-08T03:19:56.012Z,99716.28
2019-06-08T03:25:15.630Z,99731.75
2019-06-08T03:30:37.958Z,99733.95
2019-06-08T03:35:57.587Z,99741.13
2019-06-08T03:41:15.432Z,99743.85
2019-06-08T03:46:36.239Z,99754.20
2019-06-08T03:51:54.965Z,99762.59
2019-06-08T03:57:14.009Z,99758.41
2019-06-08T04:02:32.687Z,99769.05
2019-06-08T04:07:51.387Z,99775.98
2019-06-08T04:13:11.725Z,99773.00
2019-06-08T04:18:30.601Z,99792.03
2019-06-08T04:23:50.665Z,99787.53
2019-06-08T04:29:09.464Z,99790.68
2019-06-08T04:34:28.390Z,99788.08
2019-06-08T04:39:47.605Z,99793.23
2019-06-08T04:45:08.545Z,99791.66
2019-06-08T04:50:27.295Z,99793.28
2019-06-08T04:55:47.111Z,99803.50
2019-06-08T05:01:06.014Z,99813.79
2019-06-08T05:06:24.675Z,99820.12
2019-06-08T05:11:43.204Z,99819.47
2019-06-08T05:17:02.004Z,99816.81
2019-06-08T05:22:20.754Z,99824.77
2019-06-08T05:27:41.126Z,99839.41
2019-06-08T05:33:03.144Z,99845.20
2019-06-08T05:38:22.090Z,99833.72
2019-06-08T05:43:43.571Z,99845.74
2019-06-08T05:49:02.295Z,99857.34
2019-06-08T05:54:23.184Z,99861.88
2019-06-08T05:59:42.087Z,99860.02
2019-06-08T06:05:10.075Z,99860.95
2019-06-08T06:10:31.787Z,99884.03
2019-06-08T06:15:51.701Z,99873.72
2019-06-08T06:21:12.272Z,99877.86
2019-06-08T06:26:31.066Z,99895.25
2019-06-08T06:31:49.817Z,99909.28
2019-06-08T06:37:08.411Z,99918.90
2019-06-08T06:42:27.826Z,99927.00
2019-06-08T06:47:46.580Z,99931.70
2019-06-08T06:53:05.468Z,99957.58
2019-06-08T06:58:24.472Z,99956.41
2019-06-08T07:03:44.194Z,99960.20
2019-06-08T07:09:03.039Z,99981.70
2019-06-08T07:14:21.663Z,99993.79
2019-06-08T07:19:40.569Z,100002.27
2019-06-08T07:24:59.633Z,100007.87
2019-06-08T07:30:19.517Z,100002.66
2019-06-08T07:35:38.192Z,100012.88
2019-06-08T07:40:59.965Z,100008.72
2019-06-08T07:46:17.937Z,100016.82
2019-06-08T07:51:36.553Z,100034.66
2019-06-08T07:56:55.288Z,100022.92
2019-06-08T08:02:14.241Z,100038.04
2019-06-08T08:07:33.236Z,100043.73
2019-06-08T08:12:52.720Z,100044.85
2019-06-08T08:18:11.510Z,100044.85
2019-06-08T08:23:30.469Z,100056.77
2019-06-08T08:28:51.778Z,100056.77
2019-06-08T08:34:09.665Z,100054.21
2019-06-08T08:39:28.350Z,100046.69
2019-06-08T08:44:48.635Z,100064.94
2019-06-08T08:50:08.321Z,100076.91
2019-06-08T08:55:27.947Z,100090.72
2019-06-08T09:00:48.720Z,100075.40
2019-06-08T09:06:08.670Z,100089.02
2019-06-08T09:11:28.926Z,100095.20
2019-06-08T09:16:48.169Z,100107.45
2019-06-08T09:22:08.519Z,100108.48
2019-06-08T09:27:28.071Z,100107.17
2019-06-08T09:32:47.824Z,100129.94
2019-06-08T09:38:08.517Z,100122.97
2019-06-08T09:43:25.488Z,100152.44
2019-06-08T09:48:43.468Z,100153.73
2019-06-08T09:54:04.755Z,100167.00
2019-06-08T09:59:22.779Z,100167.73
2019-06-08T10:04:41.395Z,100198.00
2019-06-08T10:10:02.554Z,100202.27
2019-06-08T10:15:20.639Z,100209.16
2019-06-08T10:20:40.070Z,100217.53
2019-06-08T10:26:01.328Z,100200.22
2019-06-08T10:31:19.475Z,100220.04
2019-06-08T10:36:38.305Z,100220.04
2019-06-08T10:41:59.870Z,100231.91
2019-06-08T10:47:17.641Z,100210.88
2019-06-08T10:52:38.990Z,100222.31
2019-06-08T10:58:00.091Z,100225.07
2019-06-08T11:03:18.904Z,100239.63
2019-06-08T11:08:39.014Z,100238.16
2019-06-08T11:13:59.990Z,100247.70
2019-06-08T11:19:18.276Z,100239.98
2019-06-08T11:24:38.745Z,100256.50
2019-06-08T11:29:57.736Z,100245.16
2019-06-08T11:35:17.706Z,100259.70
2019-06-08T11:40:37.787Z,100253.69
2019-06-08T11:45:58.283Z,100259.80
2019-06-08T11:51:16.377Z,100269.39
2019-06-08T11:56:37.516Z,100258.69
2019-06-08T12:01:55.764Z,100288.77
2019-06-08T12:07:14.368Z,100288.68
2019-06-08T12:12:32.957Z,100296.30
2019-06-08T12:17:51.544Z,100316.18
2019-06-08T12:23:10.463Z,100300.95
2019-06-08T12:28:28.377Z,100297.85
2019-06-08T12:33:48.776Z,100314.06
2019-06-08T12:39:08.098Z,100323.32
2019-06-08T12:44:29.051Z,100317.40
2019-06-08T12:49:48.401Z,100339.83
2019-06-08T12:55:14.470Z,100326.45
2019-06-08T13:00:28.659Z,100343.75
2019-06-08T13:05:46.743Z,100335.04
2019-06-08T13:11:07.721Z,100328.28
2019-06-08T13:16:28.235Z,100323.67
2019-06-08T13:21:48.493Z,100338.93
2019-06-08T13:27:06.986Z,100343.98
2019-06-08T13:32:28.451Z,100335.19
2019-06-08T13:37:47.460Z,100338.84
2019-06-08T13:43:08.203Z,100353.64
2019-06-08T13:48:26.717Z,100341.59
2019-06-08T13:53:49.547Z,100339.40
2019-06-08T13:59:08.015Z,100351.56
2019-06-08T14:04:26.287Z,100340.45
2019-06-08T14:09:44.390Z,100335.70
2019-06-08T14:15:08.419Z,100349.91
2019-06-08T14:20:32.564Z,100351.41
2019-06-08T14:25:56.228Z,100359.46
2019-06-08T14:31:10.815Z,100359.73
2019-06-08T14:36:29.167Z,100362.59
2019-06-08T14:41:49.450Z,100374.56
2019-06-08T14:47:14.551Z,100347.37
2019-06-08T14:52:33.357Z,100363.20
2019-06-08T14:58:05.277Z,100363.89
2019-06-08T15:03:25.223Z,100352.30
2019-06-08T15:08:44.211Z,100347.73
2019-06-08T15:14:03.038Z,100368.52
2019-06-08T15:19:22.224Z,100368.52
2019-06-08T15:24:40.912Z,100414.89
2019-06-08T15:29:59.643Z,100436.39
2019-06-08T15:35:18.538Z,100430.25
2019-06-08T15:40:37.906Z,100421.83
2019-06-08T15:45:59.139Z,100417.48
2019-06-08T15:51:17.058Z,100417.34
2019-06-08T15:56:48.171Z,100413.44
2019-06-08T16:01:56.269Z,100421.17
2019-06-08T16:07:16.258Z,100430.94
2019-06-08T16:12:35.454Z,100455.44
2019-06-08T16:17:54.168Z,100462.59
2019-06-08T16:23:13.083Z,100456.53
2019-06-08T16:28:32.079Z,100458.56
2019-06-08T16:33:50.917Z,100459.80
2019-06-08T16:39:09.602Z,100478.05
2019-06-08T16:44:50.248Z,100510.66
2019-06-08T16:50:23.269Z,100510.66
2019-06-08T16:55:30.202Z,100530.55
2019-06-08T17:00:49.147Z,100529.69
2019-06-08T17:06:08.230Z,100522.09
2019-06-08T17:11:27.713Z,100503.85
2019-06-08T17:16:46.423Z,100510.05
2019-06-08T17:22:05.171Z,100520.95
2019-06-08T17:27:26.949Z,100541.44
2019-06-08T17:32:44.704Z,100552.76
2019-06-08T17:38:03.569Z,100554.88
2019-06-08T17:43:22.530Z,100557.67
2019-06-08T17:48:42.818Z,100566.72
2019-06-08T17:54:02.037Z,100543.94
2019-06-08T17:59:21.061Z,100553.74
2019-06-08T18:04:41.123Z,100557.79
2019-06-08T18:10:00.400Z,100559.33
2019-06-08T18:15:19.593Z,100561.84
2019-06-08T18:20:40.547Z,100553.78
2019-06-08T18:25:58.992Z,100559.73
2019-06-08T18:31:18.221Z,100554.17
2019-06-08T18:36:40.379Z,100540.30
2019-06-08T18:41:58.915Z,100546.59
2019-06-08T18:47:18.187Z,100549.37
2019-06-08T18:52:41.455Z,100564.77
2019-06-08T18:57:57.477Z,100556.43
2019-06-08T19:03:17.150Z,100562.67
2019-06-08T19:08:39.203Z,100564.58
2019-06-08T19:13:58.065Z,100585.81
2019-06-08T19:19:16.915Z,100583.26
2019-06-08T19:24:40.353Z,100588.98
2019-06-08T19:29:57.773Z,100588.98
2019-06-08T19:35:18.413Z,100609.30
2019-06-08T19:40:39.157Z,100620.63
2019-06-08T19:45:58.513Z,100634.95
2019-06-08T19:51:17.410Z,100655.57
2019-06-08T19:56:38.579Z,100673.34
2019-06-08T20:01:59.630Z,100678.91
2019-06-08T20:07:17.855Z,100654.63
2019-06-08T20:12:37.367Z,100666.67
2019-06-08T20:17:57.482Z,100665.28
2019-06-08T20:23:18.117Z,100670.24
2019-06-08T20:28:37.443Z,100672.77
2019-06-08T20:33:57.644Z,100679.52
2019-06-08T20:39:18.109Z,100693.11
2019-06-08T20:44:38.247Z,100698.79
2019-06-08T20:49:58.268Z,100706.95
2019-06-08T20:55:17.665Z,100711.47
2019-06-08T21:00:37.796Z,100715.22
2019-06-08T21:05:58.202Z,100722.27
2019-06-08T21:11:17.690Z,100724.87
2019-06-08T21:16:38.310Z,100722.51
2019-06-08T21:21:59.295Z,100722.27
2019-06-08T21:27:17.908Z,100722.94
2019-06-08T21:32:38.302Z,100715.97
2019-06-08T21:38:01.030Z,100729.39
2019-06-08T21:43:18.436Z,100734.42
2019-06-08T21:48:38.207Z,100739.41
2019-06-08T21:53:59.257Z,100735.76
2019-06-08T21:59:18.253Z,100741.85
2019-06-08T22:04:37.314Z,100749.23
2019-06-08T22:09:58.796Z,100743.27
2019-06-08T22:15:18.333Z,100736.53
2019-06-08T22:20:38.318Z,100740.94
2019-06-08T22:25:59.217Z,100731.59
2019-06-08T22:31:18.273Z,100746.82
2019-06-08T22:36:37.375Z,100752.70
2019-06-08T22:41:58.519Z,100751.88
2019-06-08T22:47:18.538Z,100753.84
2019-06-08T22:52:37.807Z,100750.11
2019-06-08T22:57:59.579Z,100750.41
2019-06-08T23:03:18.475Z,100759.34
2019-06-08T23:08:37.716Z,100756.23
2019-06-08T23:13:59.566Z,100755.20
2019-06-08T23:19:19.833Z,100768.29
2019-06-08T23:24:42.675Z,100770.47
2019-06-08T23:30:02.265Z,100765.89
2019-06-08T23:35:22.498Z,100762.11
2019-06-08T23:40:44.419Z,100768.95
2019-06-08T23:46:04.022Z,100768.15
2019-06-08T23:51:23.076Z,100770.91
2019-06-08T23:56:42.101Z,100769.45
